sensor_id;sensor_type;location;lat;lon;timestamp;temperature;humidity
72126;SHT31;59999;51.676;22.650;2023-08-17T00:00:34;20.92;83.75
72126;SHT31;59999;51.676;22.650;2023-08-17T00:03:20;20.88;83.97
72126;SHT31;59999;51.676;22.650;2023-08-17T00:05:46;20.87;84.12
72126;SHT31;59999;51.676;22.650;2023-08-17T00:08:12;20.92;84.23
72126;SHT31;59999;51.676;22.650;2023-08-17T00:10:38;20.92;84.23
72126;SHT31;59999;51.676;22.650;2023-08-17T00:13:04;20.95;84.33
72126;SHT31;59999;51.676;22.650;2023-08-17T00:15:30;21.01;84.18
72126;SHT31;59999;51.676;22.650;2023-08-17T00:17:56;20.96;84.18
72126;SHT31;59999;51.676;22.650;2023-08-17T00:20:22;21.02;84.13
72126;SHT31;59999;51.676;22.650;2023-08-17T00:22:48;21.02;84.35
72126;SHT31;59999;51.676;22.650;2023-08-17T00:25:13;21.02;84.39
72126;SHT31;59999;51.676;22.650;2023-08-17T00:27:40;21.05;84.41
72126;SHT31;59999;51.676;22.650;2023-08-17T00:30:06;21.06;84.45
72126;SHT31;59999;51.676;22.650;2023-08-17T00:32:32;21.09;84.47
72126;SHT31;59999;51.676;22.650;2023-08-17T00:34:58;21.04;84.53
72126;SHT31;59999;51.676;22.650;2023-08-17T00:37:24;21.02;84.71
72126;SHT31;59999;51.676;22.650;2023-08-17T00:39:49;21.01;85.48
72126;SHT31;59999;51.676;22.650;2023-08-17T00:42:15;21.04;85.57
72126;SHT31;59999;51.676;22.650;2023-08-17T00:44:41;21.08;85.41
72126;SHT31;59999;51.676;22.650;2023-08-17T00:47:07;21.11;85.34
72126;SHT31;59999;51.676;22.650;2023-08-17T00:49:34;21.19;85.14
72126;SHT31;59999;51.676;22.650;2023-08-17T00:52:01;21.23;84.91
72126;SHT31;59999;51.676;22.650;2023-08-17T00:54:29;21.26;84.70
72126;SHT31;59999;51.676;22.650;2023-08-17T00:56:55;21.31;84.57
72126;SHT31;59999;51.676;22.650;2023-08-17T00:59:22;21.36;84.53
72126;SHT31;59999;51.676;22.650;2023-08-17T01:01:49;21.38;84.42
72126;SHT31;59999;51.676;22.650;2023-08-17T01:04:15;21.39;84.32
72126;SHT31;59999;51.676;22.650;2023-08-17T01:06:41;21.42;84.35
72126;SHT31;59999;51.676;22.650;2023-08-17T01:09:07;21.43;84.34
72126;SHT31;59999;51.676;22.650;2023-08-17T01:11:39;21.46;84.28
72126;SHT31;59999;51.676;22.650;2023-08-17T01:17:22;21.47;84.21
72126;SHT31;59999;51.676;22.650;2023-08-17T01:19:50;21.49;84.21
72126;SHT31;59999;51.676;22.650;2023-08-17T01:22:20;21.45;84.29
72126;SHT31;59999;51.676;22.650;2023-08-17T01:24:47;21.45;84.44
72126;SHT31;59999;51.676;22.650;2023-08-17T01:27:14;21.45;84.56
72126;SHT31;59999;51.676;22.650;2023-08-17T01:29:39;21.45;84.55
72126;SHT31;59999;51.676;22.650;2023-08-17T01:35:02;21.46;84.35
72126;SHT31;59999;51.676;22.650;2023-08-17T01:37:31;21.47;84.34
72126;SHT31;59999;51.676;22.650;2023-08-17T01:39:59;21.46;84.32
72126;SHT31;59999;51.676;22.650;2023-08-17T01:42:25;21.46;84.26
72126;SHT31;59999;51.676;22.650;2023-08-17T01:44:52;21.46;84.41
72126;SHT31;59999;51.676;22.650;2023-08-17T01:47:21;21.45;84.53
72126;SHT31;59999;51.676;22.650;2023-08-17T01:49:48;21.39;84.58
72126;SHT31;59999;51.676;22.650;2023-08-17T01:52:14;21.38;84.78
72126;SHT31;59999;51.676;22.650;2023-08-17T01:54:40;21.36;84.89
72126;SHT31;59999;51.676;22.650;2023-08-17T01:57:06;21.33;84.93
72126;SHT31;59999;51.676;22.650;2023-08-17T01:59:32;21.33;84.89
72126;SHT31;59999;51.676;22.650;2023-08-17T02:01:58;21.32;84.89
72126;SHT31;59999;51.676;22.650;2023-08-17T02:04:24;21.33;85.01
72126;SHT31;59999;51.676;22.650;2023-08-17T02:06:51;21.35;85.33
72126;SHT31;59999;51.676;22.650;2023-08-17T02:09:16;21.32;85.58
72126;SHT31;59999;51.676;22.650;2023-08-17T02:11:43;21.28;85.73
72126;SHT31;59999;51.676;22.650;2023-08-17T02:14:08;21.28;86.07
72126;SHT31;59999;51.676;22.650;2023-08-17T02:16:34;21.23;86.18
72126;SHT31;59999;51.676;22.650;2023-08-17T02:19:00;21.19;86.05
72126;SHT31;59999;51.676;22.650;2023-08-17T02:21:26;21.11;86.07
72126;SHT31;59999;51.676;22.650;2023-08-17T02:23:52;21.05;86.25
72126;SHT31;59999;51.676;22.650;2023-08-17T02:26:18;20.98;86.38
72126;SHT31;59999;51.676;22.650;2023-08-17T02:28:43;20.95;86.34
72126;SHT31;59999;51.676;22.650;2023-08-17T02:31:10;20.92;86.45
72126;SHT31;59999;51.676;22.650;2023-08-17T02:33:36;20.90;86.66
72126;SHT31;59999;51.676;22.650;2023-08-17T02:36:02;20.87;86.72
72126;SHT31;59999;51.676;22.650;2023-08-17T02:38:28;20.85;86.77
72126;SHT31;59999;51.676;22.650;2023-08-17T02:40:54;20.87;86.76
72126;SHT31;59999;51.676;22.650;2023-08-17T02:43:20;20.87;86.73
72126;SHT31;59999;51.676;22.650;2023-08-17T02:45:46;20.84;86.59
72126;SHT31;59999;51.676;22.650;2023-08-17T02:48:12;20.80;86.68
72126;SHT31;59999;51.676;22.650;2023-08-17T02:50:38;20.77;86.61
72126;SHT31;59999;51.676;22.650;2023-08-17T02:53:05;20.71;86.34
72126;SHT31;59999;51.676;22.650;2023-08-17T02:55:31;20.67;86.62
72126;SHT31;59999;51.676;22.650;2023-08-17T02:57:56;20.60;86.66
72126;SHT31;59999;51.676;22.650;2023-08-17T03:00:22;20.61;87.15
72126;SHT31;59999;51.676;22.650;2023-08-17T03:02:48;20.61;87.34
72126;SHT31;59999;51.676;22.650;2023-08-17T03:05:14;20.60;87.34
72126;SHT31;59999;51.676;22.650;2023-08-17T03:07:40;20.63;87.23
72126;SHT31;59999;51.676;22.650;2023-08-17T03:10:06;20.63;87.13
72126;SHT31;59999;51.676;22.650;2023-08-17T03:12:32;20.63;86.99
72126;SHT31;59999;51.676;22.650;2023-08-17T03:14:58;20.61;86.86
72126;SHT31;59999;51.676;22.650;2023-08-17T03:17:24;20.63;87.01
72126;SHT31;59999;51.676;22.650;2023-08-17T03:19:50;20.65;87.06
72126;SHT31;59999;51.676;22.650;2023-08-17T03:22:16;20.64;87.14
72126;SHT31;59999;51.676;22.650;2023-08-17T03:24:42;20.64;87.41
72126;SHT31;59999;51.676;22.650;2023-08-17T03:27:08;20.65;87.47
72126;SHT31;59999;51.676;22.650;2023-08-17T03:29:34;20.65;87.77
72126;SHT31;59999;51.676;22.650;2023-08-17T03:32:00;20.68;87.75
72126;SHT31;59999;51.676;22.650;2023-08-17T03:34:26;20.73;87.91
72126;SHT31;59999;51.676;22.650;2023-08-17T03:36:51;20.74;88.07
72126;SHT31;59999;51.676;22.650;2023-08-17T03:39:17;20.75;88.00
72126;SHT31;59999;51.676;22.650;2023-08-17T03:41:43;20.78;88.03
72126;SHT31;59999;51.676;22.650;2023-08-17T03:44:09;20.84;88.13
72126;SHT31;59999;51.676;22.650;2023-08-17T03:46:35;20.90;88.07
72126;SHT31;59999;51.676;22.650;2023-08-17T03:49:01;20.96;87.88
72126;SHT31;59999;51.676;22.650;2023-08-17T03:51:27;21.04;87.78
72126;SHT31;59999;51.676;22.650;2023-08-17T03:53:53;21.11;87.58
72126;SHT31;59999;51.676;22.650;2023-08-17T03:56:19;21.14;87.46
72126;SHT31;59999;51.676;22.650;2023-08-17T03:58:45;21.18;87.35
72126;SHT31;59999;51.676;22.650;2023-08-17T04:01:10;21.22;87.18
72126;SHT31;59999;51.676;22.650;2023-08-17T04:03:37;21.28;87.08
72126;SHT31;59999;51.676;22.650;2023-08-17T04:06:06;21.32;86.96
72126;SHT31;59999;51.676;22.650;2023-08-17T04:08:33;21.39;86.89
72126;SHT31;59999;51.676;22.650;2023-08-17T04:10:59;21.45;86.63
72126;SHT31;59999;51.676;22.650;2023-08-17T04:13:25;21.52;86.43
72126;SHT31;59999;51.676;22.650;2023-08-17T04:15:52;21.59;86.19
72126;SHT31;59999;51.676;22.650;2023-08-17T04:18:18;21.70;85.87
72126;SHT31;59999;51.676;22.650;2023-08-17T04:20:44;21.77;85.44
72126;SHT31;59999;51.676;22.650;2023-08-17T04:23:10;21.89;85.07
72126;SHT31;59999;51.676;22.650;2023-08-17T04:25:36;21.98;84.77
72126;SHT31;59999;51.676;22.650;2023-08-17T04:28:02;22.05;84.53
72126;SHT31;59999;51.676;22.650;2023-08-17T04:30:28;22.15;84.38
72126;SHT31;59999;51.676;22.650;2023-08-17T04:32:54;22.21;84.21
72126;SHT31;59999;51.676;22.650;2023-08-17T04:35:20;22.28;83.97
72126;SHT31;59999;51.676;22.650;2023-08-17T04:37:47;22.34;83.77
72126;SHT31;59999;51.676;22.650;2023-08-17T04:40:13;22.41;83.43
72126;SHT31;59999;51.676;22.650;2023-08-17T04:42:39;22.52;83.12
72126;SHT31;59999;51.676;22.650;2023-08-17T04:45:06;22.62;82.81
72126;SHT31;59999;51.676;22.650;2023-08-17T04:47:32;22.73;82.28
72126;SHT31;59999;51.676;22.650;2023-08-17T04:49:58;22.82;81.75
72126;SHT31;59999;51.676;22.650;2023-08-17T04:52:24;22.95;81.24
72126;SHT31;59999;51.676;22.650;2023-08-17T04:54:50;23.10;80.96
72126;SHT31;59999;51.676;22.650;2023-08-17T04:57:16;23.24;80.43
72126;SHT31;59999;51.676;22.650;2023-08-17T04:59:43;23.41;79.69
72126;SHT31;59999;51.676;22.650;2023-08-17T05:02:09;23.58;79.16
72126;SHT31;59999;51.676;22.650;2023-08-17T05:04:35;23.79;78.81
72126;SHT31;59999;51.676;22.650;2023-08-17T05:07:01;24.02;78.01
72126;SHT31;59999;51.676;22.650;2023-08-17T05:09:27;24.17;76.56
72126;SHT31;59999;51.676;22.650;2023-08-17T05:11:53;24.32;75.99
72126;SHT31;59999;51.676;22.650;2023-08-17T05:14:19;24.46;75.43
72126;SHT31;59999;51.676;22.650;2023-08-17T05:16:46;24.56;74.70
72126;SHT31;59999;51.676;22.650;2023-08-17T05:19:13;24.64;74.08
72126;SHT31;59999;51.676;22.650;2023-08-17T05:21:39;24.70;74.01
72126;SHT31;59999;51.676;22.650;2023-08-17T05:24:05;24.77;73.94
72126;SHT31;59999;51.676;22.650;2023-08-17T05:26:31;24.78;73.90
72126;SHT31;59999;51.676;22.650;2023-08-17T05:28:57;24.75;73.04
72126;SHT31;59999;51.676;22.650;2023-08-17T05:31:23;24.77;72.83
72126;SHT31;59999;51.676;22.650;2023-08-17T05:33:49;24.78;73.13
72126;SHT31;59999;51.676;22.650;2023-08-17T05:36:15;24.88;73.08
72126;SHT31;59999;51.676;22.650;2023-08-17T05:38:41;25.05;72.52
72126;SHT31;59999;51.676;22.650;2023-08-17T05:41:07;25.23;71.08
72126;SHT31;59999;51.676;22.650;2023-08-17T05:43:33;25.40;70.14
72126;SHT31;59999;51.676;22.650;2023-08-17T05:45:59;25.59;69.71
72126;SHT31;59999;51.676;22.650;2023-08-17T05:48:25;25.71;68.13
72126;SHT31;59999;51.676;22.650;2023-08-17T05:50:51;25.77;67.37
72126;SHT31;59999;51.676;22.650;2023-08-17T05:53:17;25.80;67.68
72126;SHT31;59999;51.676;22.650;2023-08-17T05:55:43;25.81;68.11
72126;SHT31;59999;51.676;22.650;2023-08-17T05:58:08;25.84;68.54
72126;SHT31;59999;51.676;22.650;2023-08-17T06:00:34;25.86;68.63
72126;SHT31;59999;51.676;22.650;2023-08-17T06:03:00;25.94;68.84
72126;SHT31;59999;51.676;22.650;2023-08-17T06:05:28;26.09;67.85
72126;SHT31;59999;51.676;22.650;2023-08-17T06:07:57;26.28;66.96
72126;SHT31;59999;51.676;22.650;2023-08-17T06:10:23;26.42;66.38
72126;SHT31;59999;51.676;22.650;2023-08-17T06:12:53;26.57;64.61
72126;SHT31;59999;51.676;22.650;2023-08-17T06:15:19;26.73;64.05
72126;SHT31;59999;51.676;22.650;2023-08-17T06:17:45;26.83;63.09
72126;SHT31;59999;51.676;22.650;2023-08-17T06:20:12;26.93;62.68
72126;SHT31;59999;51.676;22.650;2023-08-17T06:22:38;27.07;62.17
72126;SHT31;59999;51.676;22.650;2023-08-17T06:25:04;27.27;61.65
72126;SHT31;59999;51.676;22.650;2023-08-17T06:27:31;27.47;61.08
72126;SHT31;59999;51.676;22.650;2023-08-17T06:29:58;27.68;60.97
72126;SHT31;59999;51.676;22.650;2023-08-17T06:32:23;27.98;61.44
72126;SHT31;59999;51.676;22.650;2023-08-17T06:34:49;28.19;59.34
72126;SHT31;59999;51.676;22.650;2023-08-17T06:37:15;28.41;57.33
72126;SHT31;59999;51.676;22.650;2023-08-17T06:39:41;28.61;56.47
72126;SHT31;59999;51.676;22.650;2023-08-17T06:42:07;28.74;55.34
72126;SHT31;59999;51.676;22.650;2023-08-17T06:44:33;28.85;54.44
72126;SHT31;59999;51.676;22.650;2023-08-17T06:46:59;28.98;53.77
72126;SHT31;59999;51.676;22.650;2023-08-17T06:49:26;29.11;52.50
72126;SHT31;59999;51.676;22.650;2023-08-17T06:51:53;29.16;52.35
72126;SHT31;59999;51.676;22.650;2023-08-17T06:54:19;29.19;51.15
72126;SHT31;59999;51.676;22.650;2023-08-17T06:56:45;29.25;51.65
72126;SHT31;59999;51.676;22.650;2023-08-17T06:59:11;29.35;52.19
72126;SHT31;59999;51.676;22.650;2023-08-17T07:01:37;29.43;50.65
72126;SHT31;59999;51.676;22.650;2023-08-17T07:04:03;29.54;50.73
72126;SHT31;59999;51.676;22.650;2023-08-17T07:06:29;29.71;53.93
72126;SHT31;59999;51.676;22.650;2023-08-17T07:08:55;29.88;55.75
72126;SHT31;59999;51.676;22.650;2023-08-17T07:11:22;29.98;55.76
72126;SHT31;59999;51.676;22.650;2023-08-17T07:13:48;30.07;55.72
72126;SHT31;59999;51.676;22.650;2023-08-17T07:16:14;30.12;55.62
72126;SHT31;59999;51.676;22.650;2023-08-17T07:18:40;30.27;56.53
72126;SHT31;59999;51.676;22.650;2023-08-17T07:21:06;30.41;55.71
72126;SHT31;59999;51.676;22.650;2023-08-17T07:23:32;30.53;53.31
72126;SHT31;59999;51.676;22.650;2023-08-17T07:25:58;30.63;50.97
72126;SHT31;59999;51.676;22.650;2023-08-17T07:28:24;30.77;51.28
72126;SHT31;59999;51.676;22.650;2023-08-17T07:30:50;30.79;48.00
72126;SHT31;59999;51.676;22.650;2023-08-17T07:33:16;30.83;46.45
72126;SHT31;59999;51.676;22.650;2023-08-17T07:35:42;31.03;48.07
72126;SHT31;59999;51.676;22.650;2023-08-17T07:38:08;31.14;44.77
72126;SHT31;59999;51.676;22.650;2023-08-17T07:40:34;31.18;44.80
72126;SHT31;59999;51.676;22.650;2023-08-17T07:43:00;31.13;43.50
72126;SHT31;59999;51.676;22.650;2023-08-17T07:45:27;31.08;43.07
72126;SHT31;59999;51.676;22.650;2023-08-17T07:47:53;31.13;42.85
72126;SHT31;59999;51.676;22.650;2023-08-17T07:50:19;31.16;41.50
72126;SHT31;59999;51.676;22.650;2023-08-17T07:52:46;31.21;42.31
72126;SHT31;59999;51.676;22.650;2023-08-17T07:55:12;31.28;43.12
72126;SHT31;59999;51.676;22.650;2023-08-17T07:57:38;31.20;41.53
72126;SHT31;59999;51.676;22.650;2023-08-17T08:00:05;31.16;40.53
72126;SHT31;59999;51.676;22.650;2023-08-17T08:02:31;31.13;41.36
72126;SHT31;59999;51.676;22.650;2023-08-17T08:04:57;31.21;41.70
72126;SHT31;59999;51.676;22.650;2023-08-17T08:07:23;31.33;41.83
72126;SHT31;59999;51.676;22.650;2023-08-17T08:09:49;31.44;43.57
72126;SHT31;59999;51.676;22.650;2023-08-17T08:12:14;31.51;44.63
72126;SHT31;59999;51.676;22.650;2023-08-17T08:14:40;31.42;43.13
72126;SHT31;59999;51.676;22.650;2023-08-17T08:17:06;31.47;44.40
72126;SHT31;59999;51.676;22.650;2023-08-17T08:19:32;31.57;45.09
72126;SHT31;59999;51.676;22.650;2023-08-17T08:21:58;31.58;41.35
72126;SHT31;59999;51.676;22.650;2023-08-17T08:24:24;31.55;40.70
72126;SHT31;59999;51.676;22.650;2023-08-17T08:26:51;31.54;41.15
72126;SHT31;59999;51.676;22.650;2023-08-17T08:29:18;31.54;42.02
72126;SHT31;59999;51.676;22.650;2023-08-17T08:31:44;31.51;41.63
72126;SHT31;59999;51.676;22.650;2023-08-17T08:34:10;31.51;41.69
72126;SHT31;59999;51.676;22.650;2023-08-17T08:36:36;31.39;43.28
72126;SHT31;59999;51.676;22.650;2023-08-17T08:39:03;31.28;43.15
72126;SHT31;59999;51.676;22.650;2023-08-17T08:41:33;31.18;43.60
72126;SHT31;59999;51.676;22.650;2023-08-17T08:44:00;31.27;43.93
72126;SHT31;59999;51.676;22.650;2023-08-17T08:46:30;31.38;44.72
72126;SHT31;59999;51.676;22.650;2023-08-17T08:48:57;31.52;44.96
72126;SHT31;59999;51.676;22.650;2023-08-17T08:51:27;31.69;44.88
72126;SHT31;59999;51.676;22.650;2023-08-17T08:54:01;31.81;42.94
72126;SHT31;59999;51.676;22.650;2023-08-17T08:56:35;31.90;42.42
72126;SHT31;59999;51.676;22.650;2023-08-17T08:59:04;31.99;43.57
72126;SHT31;59999;51.676;22.650;2023-08-17T09:01:34;32.14;42.01
72126;SHT31;59999;51.676;22.650;2023-08-17T09:04:00;32.26;41.43
72126;SHT31;59999;51.676;22.650;2023-08-17T09:06:32;32.44;41.55
72126;SHT31;59999;51.676;22.650;2023-08-17T09:09:01;32.59;41.71
72126;SHT31;59999;51.676;22.650;2023-08-17T09:11:28;32.68;42.23
72126;SHT31;59999;51.676;22.650;2023-08-17T09:13:54;32.78;41.49
72126;SHT31;59999;51.676;22.650;2023-08-17T09:16:20;32.95;41.62
72126;SHT31;59999;51.676;22.650;2023-08-17T09:18:47;33.12;41.61
72126;SHT31;59999;51.676;22.650;2023-08-17T09:21:23;33.23;40.63
72126;SHT31;59999;51.676;22.650;2023-08-17T09:23:54;33.19;39.17
72126;SHT31;59999;51.676;22.650;2023-08-17T09:26:21;33.17;39.22
72126;SHT31;59999;51.676;22.650;2023-08-17T09:28:53;33.14;39.16
72126;SHT31;59999;51.676;22.650;2023-08-17T09:31:23;33.08;39.71
72126;SHT31;59999;51.676;22.650;2023-08-17T09:33:50;33.05;39.69
72126;SHT31;59999;51.676;22.650;2023-08-17T09:36:25;33.14;40.60
72126;SHT31;59999;51.676;22.650;2023-08-17T09:38:51;33.15;40.28
72126;SHT31;59999;51.676;22.650;2023-08-17T09:41:18;33.15;39.70
72126;SHT31;59999;51.676;22.650;2023-08-17T09:43:46;33.19;40.32
72126;SHT31;59999;51.676;22.650;2023-08-17T09:46:12;33.29;39.80
72126;SHT31;59999;51.676;22.650;2023-08-17T09:48:38;33.39;40.43
72126;SHT31;59999;51.676;22.650;2023-08-17T09:51:06;33.45;39.22
72126;SHT31;59999;51.676;22.650;2023-08-17T09:53:35;33.45;39.82
72126;SHT31;59999;51.676;22.650;2023-08-17T09:56:06;33.53;39.88
72126;SHT31;59999;51.676;22.650;2023-08-17T09:58:38;33.49;38.77
72126;SHT31;59999;51.676;22.650;2023-08-17T10:01:04;33.41;39.64
72126;SHT31;59999;51.676;22.650;2023-08-17T10:03:34;33.25;39.96
72126;SHT31;59999;51.676;22.650;2023-08-17T10:06:09;33.07;40.48
72126;SHT31;59999;51.676;22.650;2023-08-17T10:08:41;32.97;40.31
72126;SHT31;59999;51.676;22.650;2023-08-17T10:11:08;32.94;40.76
72126;SHT31;59999;51.676;22.650;2023-08-17T10:13:42;32.94;40.28
72126;SHT31;59999;51.676;22.650;2023-08-17T10:21:46;32.94;40.26
72126;SHT31;59999;51.676;22.650;2023-08-17T10:24:13;32.92;40.45
72126;SHT31;59999;51.676;22.650;2023-08-17T10:26:39;32.91;39.81
72126;SHT31;59999;51.676;22.650;2023-08-17T10:29:07;32.97;41.41
72126;SHT31;59999;51.676;22.650;2023-08-17T10:31:37;33.04;40.95
72126;SHT31;59999;51.676;22.650;2023-08-17T10:34:04;33.08;40.97
72126;SHT31;59999;51.676;22.650;2023-08-17T10:36:32;33.15;41.78
72126;SHT31;59999;51.676;22.650;2023-08-17T10:39:22;33.12;40.99
72126;SHT31;59999;51.676;22.650;2023-08-17T10:41:49;33.05;41.41
72126;SHT31;59999;51.676;22.650;2023-08-17T10:44:18;33.17;41.62
72126;SHT31;59999;51.676;22.650;2023-08-17T10:47:30;33.15;38.80
72126;SHT31;59999;51.676;22.650;2023-08-17T10:50:03;33.14;40.86
72126;SHT31;59999;51.676;22.650;2023-08-17T10:52:34;33.11;41.58
72126;SHT31;59999;51.676;22.650;2023-08-17T10:55:03;33.14;41.95
72126;SHT31;59999;51.676;22.650;2023-08-17T10:57:39;33.11;42.53
72126;SHT31;59999;51.676;22.650;2023-08-17T11:02:53;32.87;42.75
72126;SHT31;59999;51.676;22.650;2023-08-17T11:08:05;32.94;40.45
72126;SHT31;59999;51.676;22.650;2023-08-17T11:10:32;32.95;39.56
72126;SHT31;59999;51.676;22.650;2023-08-17T11:12:59;32.97;40.33
72126;SHT31;59999;51.676;22.650;2023-08-17T11:15:26;33.08;39.63
72126;SHT31;59999;51.676;22.650;2023-08-17T11:18:00;33.15;39.59
72126;SHT31;59999;51.676;22.650;2023-08-17T11:20:29;33.26;39.72
72126;SHT31;59999;51.676;22.650;2023-08-17T11:22:55;33.36;39.86
72126;SHT31;59999;51.676;22.650;2023-08-17T11:25:23;33.53;40.55
72126;SHT31;59999;51.676;22.650;2023-08-17T11:27:49;33.66;40.83
72126;SHT31;59999;51.676;22.650;2023-08-17T11:30:16;33.67;38.43
72126;SHT31;59999;51.676;22.650;2023-08-17T11:32:41;33.72;38.87
72126;SHT31;59999;51.676;22.650;2023-08-17T11:35:08;33.77;38.18
72126;SHT31;59999;51.676;22.650;2023-08-17T11:37:33;33.81;37.63
72126;SHT31;59999;51.676;22.650;2023-08-17T11:39:59;33.81;36.68
72126;SHT31;59999;51.676;22.650;2023-08-17T11:42:25;33.72;36.16
72126;SHT31;59999;51.676;22.650;2023-08-17T11:44:51;33.60;36.66
72126;SHT31;59999;51.676;22.650;2023-08-17T11:47:17;33.46;36.82
72126;SHT31;59999;51.676;22.650;2023-08-17T11:49:47;33.36;38.86
72126;SHT31;59999;51.676;22.650;2023-08-17T11:52:13;33.25;38.28
72126;SHT31;59999;51.676;22.650;2023-08-17T11:54:40;33.23;39.88
72126;SHT31;59999;51.676;22.650;2023-08-17T11:57:07;33.19;39.14
72126;SHT31;59999;51.676;22.650;2023-08-17T11:59:34;33.15;38.45
72126;SHT31;59999;51.676;22.650;2023-08-17T12:02:01;33.23;38.79
72126;SHT31;59999;51.676;22.650;2023-08-17T12:04:27;33.33;38.69
72126;SHT31;59999;51.676;22.650;2023-08-17T12:06:54;33.38;38.31
72126;SHT31;59999;51.676;22.650;2023-08-17T12:09:21;33.41;36.98
72126;SHT31;59999;51.676;22.650;2023-08-17T12:11:47;33.38;37.26
72126;SHT31;59999;51.676;22.650;2023-08-17T12:14:13;33.29;38.34
72126;SHT31;59999;51.676;22.650;2023-08-17T12:16:48;33.39;39.17
72126;SHT31;59999;51.676;22.650;2023-08-17T12:19:15;33.55;38.74
72126;SHT31;59999;51.676;22.650;2023-08-17T12:21:42;33.69;38.50
72126;SHT31;59999;51.676;22.650;2023-08-17T12:24:10;33.83;39.05
72126;SHT31;59999;51.676;22.650;2023-08-17T12:26:46;33.97;37.76
72126;SHT31;59999;51.676;22.650;2023-08-17T12:29:13;34.11;37.96
72126;SHT31;59999;51.676;22.650;2023-08-17T12:31:39;34.24;37.24
72126;SHT31;59999;51.676;22.650;2023-08-17T12:34:05;34.34;37.19
72126;SHT31;59999;51.676;22.650;2023-08-17T12:36:32;34.40;36.60
72126;SHT31;59999;51.676;22.650;2023-08-17T12:38:58;34.31;35.29
72126;SHT31;59999;51.676;22.650;2023-08-17T12:41:24;34.31;36.14
72126;SHT31;59999;51.676;22.650;2023-08-17T12:43:50;34.32;36.10
72126;SHT31;59999;51.676;22.650;2023-08-17T12:46:16;34.15;35.13
72126;SHT31;59999;51.676;22.650;2023-08-17T12:48:42;33.86;35.71
72126;SHT31;59999;51.676;22.650;2023-08-17T12:51:07;33.55;36.48
72126;SHT31;59999;51.676;22.650;2023-08-17T12:53:34;33.32;36.53
72126;SHT31;59999;51.676;22.650;2023-08-17T12:55:59;33.22;36.96
72126;SHT31;59999;51.676;22.650;2023-08-17T12:58:25;33.32;38.04
72126;SHT31;59999;51.676;22.650;2023-08-17T13:00:51;33.46;37.93
72126;SHT31;59999;51.676;22.650;2023-08-17T13:03:20;33.60;37.70
72126;SHT31;59999;51.676;22.650;2023-08-17T13:05:46;33.73;37.04
72126;SHT31;59999;51.676;22.650;2023-08-17T13:08:12;33.89;36.63
72126;SHT31;59999;51.676;22.650;2023-08-17T13:10:37;33.93;37.37
72126;SHT31;59999;51.676;22.650;2023-08-17T13:13:03;33.96;38.23
72126;SHT31;59999;51.676;22.650;2023-08-17T13:15:32;34.00;38.78
72126;SHT31;59999;51.676;22.650;2023-08-17T13:17:59;34.00;38.01
72126;SHT31;59999;51.676;22.650;2023-08-17T13:20:25;33.97;38.86
72126;SHT31;59999;51.676;22.650;2023-08-17T13:22:51;33.97;38.81
72126;SHT31;59999;51.676;22.650;2023-08-17T13:25:17;34.03;39.75
72126;SHT31;59999;51.676;22.650;2023-08-17T13:27:43;33.94;38.76
72126;SHT31;59999;51.676;22.650;2023-08-17T13:30:09;33.77;40.15
72126;SHT31;59999;51.676;22.650;2023-08-17T13:32:35;33.76;39.93
72126;SHT31;59999;51.676;22.650;2023-08-17T13:35:02;33.81;40.45
72126;SHT31;59999;51.676;22.650;2023-08-17T13:37:28;33.87;38.23
72126;SHT31;59999;51.676;22.650;2023-08-17T13:39:54;33.84;38.69
72126;SHT31;59999;51.676;22.650;2023-08-17T13:42:21;33.87;38.90
72126;SHT31;59999;51.676;22.650;2023-08-17T13:44:46;33.92;39.50
72126;SHT31;59999;51.676;22.650;2023-08-17T13:47:13;33.96;39.05
72126;SHT31;59999;51.676;22.650;2023-08-17T13:49:38;33.69;38.83
72126;SHT31;59999;51.676;22.650;2023-08-17T13:52:04;33.36;39.92
72126;SHT31;59999;51.676;22.650;2023-08-17T13:54:30;33.11;40.05
72126;SHT31;59999;51.676;22.650;2023-08-17T13:56:56;32.87;40.59
72126;SHT31;59999;51.676;22.650;2023-08-17T13:59:22;32.80;40.54
72126;SHT31;59999;51.676;22.650;2023-08-17T14:01:48;32.75;40.83
72126;SHT31;59999;51.676;22.650;2023-08-17T14:04:14;32.59;41.76
72126;SHT31;59999;51.676;22.650;2023-08-17T14:06:41;32.47;42.92
72126;SHT31;59999;51.676;22.650;2023-08-17T14:09:07;32.41;43.42
72126;SHT31;59999;51.676;22.650;2023-08-17T14:11:33;32.32;44.51
72126;SHT31;59999;51.676;22.650;2023-08-17T14:13:59;32.14;44.48
72126;SHT31;59999;51.676;22.650;2023-08-17T14:16:25;32.01;45.21
72126;SHT31;59999;51.676;22.650;2023-08-17T14:18:50;32.29;44.74
72126;SHT31;59999;51.676;22.650;2023-08-17T14:21:17;32.91;43.52
72126;SHT31;59999;51.676;22.650;2023-08-17T14:23:42;33.59;42.18
72126;SHT31;59999;51.676;22.650;2023-08-17T14:26:08;34.21;39.65
72126;SHT31;59999;51.676;22.650;2023-08-17T14:28:34;34.73;38.90
72126;SHT31;59999;51.676;22.650;2023-08-17T14:31:00;35.19;38.35
72126;SHT31;59999;51.676;22.650;2023-08-17T14:33:26;35.58;38.18
72126;SHT31;59999;51.676;22.650;2023-08-17T14:35:52;35.88;37.94
72126;SHT31;59999;51.676;22.650;2023-08-17T14:38:18;36.09;37.69
72126;SHT31;59999;51.676;22.650;2023-08-17T14:40:45;36.28;37.22
72126;SHT31;59999;51.676;22.650;2023-08-17T14:43:12;36.35;35.99
72126;SHT31;59999;51.676;22.650;2023-08-17T14:45:43;36.25;36.16
72126;SHT31;59999;51.676;22.650;2023-08-17T14:48:09;35.86;36.21
72126;SHT31;59999;51.676;22.650;2023-08-17T14:50:37;35.34;36.74
72126;SHT31;59999;51.676;22.650;2023-08-17T14:53:03;34.99;37.74
72126;SHT31;59999;51.676;22.650;2023-08-17T14:55:33;35.07;38.31
72126;SHT31;59999;51.676;22.650;2023-08-17T14:57:59;35.36;37.75
72126;SHT31;59999;51.676;22.650;2023-08-17T15:00:25;35.57;36.30
72126;SHT31;59999;51.676;22.650;2023-08-17T15:02:55;35.94;37.23
72126;SHT31;59999;51.676;22.650;2023-08-17T15:05:21;36.12;35.35
72126;SHT31;59999;51.676;22.650;2023-08-17T15:07:47;36.43;33.66
72126;SHT31;59999;51.676;22.650;2023-08-17T15:10:13;36.60;33.97
72126;SHT31;59999;51.676;22.650;2023-08-17T15:12:39;36.74;34.08
72126;SHT31;59999;51.676;22.650;2023-08-17T15:15:06;36.71;33.57
72126;SHT31;59999;51.676;22.650;2023-08-17T15:17:32;36.95;33.46
72126;SHT31;59999;51.676;22.650;2023-08-17T15:19:59;37.31;33.14
72126;SHT31;59999;51.676;22.650;2023-08-17T15:22:25;37.57;32.40
72126;SHT31;59999;51.676;22.650;2023-08-17T15:24:53;37.92;31.56
72126;SHT31;59999;51.676;22.650;2023-08-17T15:27:19;38.13;31.10
72126;SHT31;59999;51.676;22.650;2023-08-17T15:29:45;38.00;30.29